Data for 08/13/2010

Time Sea-Level Adjusted Pressure Absolute Pressure Temperature Relative Humidity Dew Point   
(mb) (inHg) (mb) (inHg) (C) (F) (%) (C) (F)
00:05 1016 30 846 24.98 14.1 57.5 60 6.5 43.6
00:10 1016 30 846 24.98 14.3 57.7 60 6.7 44.1
00:15 1016 30 846 24.98 13.8 56.8 62 6.7 44.1
00:20 1016 30 846 24.98 13.5 56.3 64 6.8 44.3
00:25 1016 30 846 24.98 13.4 56.2 64 6.9 44.5
00:30 1016 30 846 24.98 13.2 55.7 68 7.3 45.2
00:35 1016 30 846 24.98 12.8 55 67 6.9 44.3
00:40 1016 30 846 24.98 12.9 55.3 66 6.9 44.3
00:45 1016 30 846 24.98 13 55.4 66 6.8 44.2
00:50 1016 30 846 24.98 12.9 55.3 66 6.8 44.2
00:55 1016 30 846 24.98 12.9 55.2 67 6.8 44.3
01:00 1017 30.03 846 24.98 12.8 55 67 6.9 44.4
01:05 1017 30.03 846 24.98 12.7 54.9 68 7 44.6
01:10 1017 30.03 846 24.98 12.8 55.1 68 7.1 44.7
01:15 1016 30 846 24.98 13 55.5 67 7 44.6
01:20 1016 30 846 24.98 13.2 55.7 67 7.2 45
01:25 1016 30 846 24.98 13.2 55.8 66 7.1 44.8
01:30 1016 30 846 24.98 13.2 55.8 66 7.2 44.9
01:35 1016 30 846 24.98 13.2 55.7 67 7.1 44.8
01:40 1016 30 846 24.98 13 55.5 67 7.2 44.9
01:45 1016 30 846 24.98 12.9 55.3 68 7.2 44.9
01:50 1016 30 846 24.98 12.9 55.2 68 7.1 44.9
01:55 1016 30 846 24.98 12.5 54.5 70 7.3 45.1
02:00 1016 30 846 24.98 12.3 54.1 69 6.9 44.4
02:05 1016 30 846 24.98 12.5 54.6 67 6.7 44
02:10 1016 30 846 24.98 12.5 54.5 68 6.8 44.2
02:15 1017 30.03 846 24.98 12.4 54.3 68 6.7 44.1
02:20 1017 30.03 846 24.98 12.2 54 67 6.4 43.5
02:25 1017 30.03 846 24.98 12.3 54.2 67 6.4 43.5
02:30 1017 30.03 846 24.98 12.2 53.9 67 6.3 43.3
02:35 1017 30.03 846 24.98 12.1 53.8 68 6.3 43.4
02:40 1017 30.03 846 24.98 12.2 54 69 6.7 44
02:45 1017 30.03 846 24.98 12.2 54 69 6.8 44.2
02:50 1017 30.03 846 24.98 12.1 53.8 68 6.4 43.6
02:55 1017 30.03 846 24.98 12.4 54.4 68 6.7 44
03:00 1017 30.03 846 24.98 12.3 54.1 68 6.6 44
03:05 1017 30.03 846 24.98 12.2 53.9 70 6.8 44.3
03:10 1017 30.03 846 24.98 11.8 53.3 71 6.7 44.1
03:15 1017 30.03 846 24.98 11.7 53 72 6.8 44.3
03:20 1017 30.03 846 24.98 11.4 52.6 73 6.8 44.2
03:25 1017 30.03 846 24.98 11.3 52.3 75 7 44.6
03:30 1017 30.03 846 24.98 11.2 52.2 75 7 44.6
03:35 1017 30.03 846 24.98 11 51.9 77 7.2 44.9
03:40 1017 30.03 846 24.98 10.8 51.4 79 7.3 45.1
03:45 1017 30.03 846 24.98 10.5 50.9 80 7.2 44.9
03:50 1017 30.03 846 24.98 10.5 50.9 80 7.2 45
03:55 1017 30.03 846 24.98 10.8 51.4 79 7.2 45
04:00 1017 30.03 846 24.98 10.9 51.6 78 7.3 45.1
04:05 1017 30.03 846 24.98 10.8 51.4 79 7.3 45.1
04:10 1017 30.03 846 24.98 10.7 51.2 79 7.2 45
04:15 1017 30.03 846 24.98 10.4 50.6 80 7 44.6
04:20 1017 30.03 846 24.98 10.3 50.6 80 7 44.5
04:25 1017 30.03 846 24.98 10.5 50.8 79 7.1 44.7
04:30 1017 30.03 846 24.98 10.5 50.9 79 7 44.6
04:35 1017 30.03 846 24.98 10.5 50.9 79 7 44.6
04:40 1017 30.03 846 24.98 10.6 51 79 7.2 44.9
04:45 1017 30.03 846 24.98 10.6 51 80 7.3 45.1
04:50 1017 30.03 846 24.98 10.4 50.8 81 7.3 45.1
04:55 1017 30.03 846 24.98 10.5 50.9 81 7.3 45.2
05:00 1017 30.03 846 24.98 10.5 50.9 81 7.4 45.3
05:05 1017 30.03 846 24.98 10.4 50.7 82 7.4 45.3
05:10 1017 30.03 846 24.98 10.3 50.5 82 7.4 45.3
05:15 1017 30.03 846 24.98 10.4 50.6 81 7.2 45
05:20 1017 30.03 846 24.98 10.4 50.6 81 7.2 45
05:25 1017 30.03 846 24.98 10 50 82 7.1 44.7
05:30 1016 30 846 24.98 9.7 49.5 83 7 44.6
05:35 1016 30 845 24.95 9.6 49.3 83 6.8 44.3
05:40 1016 30 845 24.95 9.7 49.5 82 6.8 44.3
05:45 1016 30 845 24.95 9.7 49.4 82 6.8 44.2
05:50 1016 30 846 24.98 9.6 49.3 82 6.7 44.1
05:55 1016 30 846 24.98 9.7 49.5 82 6.7 44.1
06:00 1017 30.03 846 24.98 9.7 49.5 82 6.8 44.3
06:05 1016 30 846 24.98 9.5 49.2 82 6.6 44
06:10 1016 30 846 24.98 9.5 49.1 81 6.5 43.7
06:15 1017 30.03 846 24.98 9.7 49.4 80 6.4 43.5
06:20 1017 30.03 846 24.98 9.8 49.6 80 6.4 43.6
06:25 1017 30.03 846 24.98 9.8 49.6 80 6.5 43.6
06:30 1017 30.03 846 24.98 9.8 49.6 80 6.5 43.7
06:35 1017 30.03 846 24.98 9.7 49.5 81 6.7 44
06:40 1017 30.03 846 24.98 9.6 49.3 82 6.7 44.1
06:45 1017 30.03 846 24.98 9.6 49.3 82 6.6 43.9
06:50 1017 30.03 846 24.98 9.6 49.3 82 6.6 43.9
06:55 1017 30.03 846 24.98 9.7 49.4 81 6.7 44
07:00 1017 30.03 846 24.98 9.8 49.7 81 6.7 44
07:05 1017 30.03 846 24.98 9.9 49.9 81 6.7 44.1
07:10 1017 30.03 846 24.98 9.7 49.5 82 6.8 44.2
07:15 1017 30.03 846 24.98 9.7 49.5 81 6.6 43.9
07:20 1017 30.03 846 24.98 9.8 49.6 81 6.8 44.2
07:25 1017 30.03 846 24.98 10 49.9 81 6.9 44.4
07:30 1017 30.03 846 24.98 10.1 50.2 81 6.9 44.5
07:35 1017 30.03 846 24.98 10.1 50.2 82 7.1 44.8
07:40 1017 30.03 847 25.01 10.2 50.4 82 7.3 45.2
07:45 1017 30.03 847 25.01 10.4 50.6 82 7.4 45.4
07:50 1017 30.03 847 25.01 10.6 51 82 7.6 45.6
07:55 1017 30.03 846 24.98 10.7 51.3 81 7.6 45.8
08:00 1017 30.03 846 24.98 10.8 51.4 81 7.7 45.9
08:05 1017 30.03 847 25.01 10.8 51.5 81 7.8 46
08:10 1017 30.03 847 25.01 10.8 51.5 81 7.8 46.1
08:15 1018 30.06 847 25.01 10.9 51.7 81 7.9 46.2
08:20 1018 30.06 847 25.01 10.9 51.7 82 8 46.5
08:25 1018 30.06 847 25.01 11 51.7 83 8.1 46.6
08:30 1018 30.06 847 25.01 11 51.8 83 8.2 46.7
08:35 1018 30.06 847 25.01 11.1 51.9 83 8.3 46.9
08:40 1018 30.06 847 25.01 11.1 52 82 8.2 46.8
08:45 1018 30.06 847 25.01 11.2 52.2 82 8.3 46.9
08:50 1018 30.06 847 25.01 11.3 52.4 81 8.2 46.8
08:55 1018 30.06 847 25.01 11.4 52.5 81 8.2 46.8
09:00 1018 30.06 847 25.01 11.4 52.5 80 8.1 46.6
09:05 1018 30.06 847 25.01 11.4 52.4 80 8.1 46.5
09:10 1018 30.06 847 25.01 11.3 52.3 79 7.8 46
09:15 1018 30.06 847 25.01 11.1 51.9 81 7.9 46.2
09:20 1018 30.06 848 25.04 10.9 51.7 81 7.8 46
09:25 1018 30.06 848 25.04 10.8 51.5 82 7.9 46.2
09:30 1018 30.06 848 25.04 10.8 51.4 82 7.8 46
09:35 1019 30.09 848 25.04 10.7 51.2 82 7.8 46.1
09:40 1019 30.09 848 25.04 10.5 50.9 85 8 46.5
09:45 1019 30.09 848 25.04 10.3 50.5 87 8.1 46.7
09:50 1019 30.09 848 25.04 10.1 50.1 87 8 46.5
09:55 1019 30.09 848 25.04 9.8 49.7 89 8.1 46.6
10:00 1019 30.09 848 25.04 9.7 49.4 90 8.1 46.6
10:05 1019 30.09 848 25.04 9.5 49.2 91 8.1 46.6
10:10 1019 30.09 848 25.04 9.5 49 91 8.1 46.5
10:15 1019 30.09 849 25.07 9.4 48.9 91 8 46.5
10:20 1019 30.09 849 25.07 9.3 48.7 92 8 46.4
10:25 1019 30.09 849 25.07 9.2 48.6 92 8 46.5
10:30 1019 30.09 849 25.07 9.3 48.7 92 8 46.5
10:35 1019 30.09 849 25.07 9.3 48.7 92 8 46.5
10:40 1019 30.09 849 25.07 9.4 48.8 92 8.2 46.7
10:45 1019 30.09 849 25.07 9.4 49 92 8.2 46.7
10:50 1019 30.09 849 25.07 9.5 49 91 8.1 46.5
10:55 1020 30.12 849 25.07 9.5 49.1 90 8 46.4
11:00 1020 30.12 849 25.07 9.5 49.1 91 8.1 46.6
11:05 1020 30.12 849 25.07 9.5 49.1 91 8.1 46.6
11:10 1020 30.12 849 25.07 9.5 49.1 91 8.2 46.7
11:15 1020 30.12 849 25.07 9.5 49.1 91 8.2 46.7
11:20 1020 30.12 849 25.07 9.5 49.1 90 8 46.4
11:25 1020 30.12 849 25.07 9.5 49.1 90 7.9 46.2
11:30 1020 30.12 849 25.07 9.6 49.2 89 7.9 46.1
11:35 1020 30.12 849 25.07 9.6 49.3 90 8 46.4
11:40 1020 30.12 849 25.07 9.4 48.9 89 7.7 45.8
11:45 1020 30.12 849 25.07 9.3 48.8 90 7.8 46
11:50 1020 30.12 849 25.07 9.3 48.7 89 7.6 45.7
11:55 1020 30.12 849 25.07 9.2 48.6 89 7.5 45.5
12:00 1020 30.12 849 25.07 9.3 48.7 89 7.5 45.6
12:05 1020 30.12 849 25.07 9.4 48.9 89 7.7 45.9
12:10 1020 30.12 849 25.07 9.2 48.6 88 7.4 45.2
12:15 1020 30.12 849 25.07 9.1 48.3 88 7.2 44.9
12:20 1020 30.12 849 25.07 9 48.3 86 6.9 44.4
12:25 1020 30.12 849 25.07 9.1 48.3 88 7.2 45
12:30 1020 30.12 849 25.07 9.3 48.7 88 7.3 45.2
12:35 1020 30.12 849 25.07 9.5 49.1 87 7.5 45.4
12:40 1020 30.12 849 25.07 9.9 49.8 86 7.6 45.8
12:45 1020 30.12 849 25.07 10.2 50.3 82 7.2 44.9
12:50 1020 30.12 849 25.07 10.4 50.7 81 7.2 45
12:55 1020 30.12 849 25.07 10.5 51 81 7.4 45.3
13:00 1020 30.12 849 25.07 10.3 50.5 79 6.8 44.2
13:05 1020 30.12 849 25.07 10.3 50.5 79 6.8 44.3
13:10 1020 30.12 849 25.07 10.5 51 79 7 44.6
13:15 1020 30.12 849 25.07 10.8 51.4 77 6.9 44.5
13:20 1020 30.12 849 25.07 11 51.8 80 7.7 45.9
13:25 1020 30.12 849 25.07 11.2 52.1 77 7.3 45.1
13:30 1020 30.12 849 25.07 11.3 52.3 79 7.8 46.1
13:35 1020 30.12 849 25.07 11.6 52.8 76 7.5 45.5
13:40 1020 30.12 849 25.07 11.7 53 74 7.2 44.9
13:45 1020 30.12 849 25.07 12.1 53.7 71 7 44.7
13:50 1020 30.12 849 25.07 12.2 54 67 6.4 43.6
13:55 1020 30.12 850 25.1 12.6 54.7 68 6.8 44.2
14:00 1020 30.12 850 25.1 13 55.4 65 6.7 44.1
14:05 1020 30.12 850 25.1 13.6 56.4 64 7 44.6
14:10 1020 30.12 850 25.1 13.7 56.7 62 6.6 43.8
14:15 1020 30.12 850 25.1 13.6 56.5 60 6.1 42.9
14:20 1020 30.12 849 25.07 14.4 57.9 59 6.5 43.8
14:25 1020 30.12 850 25.1 14.1 57.4 59 6.3 43.4
14:30 1020 30.12 850 25.1 14.3 57.7 59 6.4 43.5
14:35 1020 30.12 850 25.1 13.9 57.1 59 6.1 42.9
14:40 1020 30.12 850 25.1 15.1 59.3 55 6.4 43.4
14:45 1020 30.12 850 25.1 15.2 59.3 58 7 44.5
14:50 1020 30.12 850 25.1 14.3 57.7 59 6.5 43.7
14:55 1020 30.12 850 25.1 14.7 58.5 59 6.9 44.5
15:00 1020 30.12 850 25.1 14.6 58.4 61 7.4 45.3
15:05 1020 30.12 850 25.1 13.6 56.5 65 7.2 45
15:10 1020 30.12 850 25.1 13.1 55.5 68 7.3 45.1
15:15 1020 30.12 850 25.1 12.8 55 68 7.2 44.9
15:20 1020 30.12 850 25.1 12.9 55.3 67 7 44.5
15:25 1020 30.12 850 25.1 13.5 56.2 64 6.8 44.2
15:30 1020 30.12 850 25.1 14.9 58.8 56 6.1 43
15:35 1020 30.12 849 25.07 15.8 60.5 53 6.4 43.5
15:40 1020 30.12 849 25.07 16.1 61 55 7.2 44.9
15:45 1020 30.12 849 25.07 15.3 59.5 59 7.5 45.5
15:50 1020 30.12 849 25.07 14.4 57.9 62 7.2 44.9
15:55 1020 30.12 849 25.07 14.6 58.2 57 6.2 43.2
16:00 1020 30.12 849 25.07 14.6 58.3 61 7.3 45.2
16:05 1020 30.12 849 25.07 14.3 57.8 61 6.9 44.5
16:10 1020 30.12 849 25.07 14.1 57.3 61 6.8 44.2
16:15 1020 30.12 849 25.07 14.4 58 58 6.4 43.5
16:20 1020 30.12 849 25.07 14.7 58.4 57 6.3 43.3
16:25 1020 30.12 849 25.07 15 59 55 6.2 43.2
16:30 1020 30.12 849 25.07 15.3 59.6 55 6.3 43.4
16:35 1020 30.12 849 25.07 15.5 59.8 54 6.3 43.4
16:40 1020 30.12 849 25.07 15.9 60.7 50 5.7 42.2
16:45 1020 30.12 849 25.07 16.1 61 54 6.9 44.3
16:50 1020 30.12 849 25.07 15.9 60.5 53 6.4 43.6
16:55 1020 30.12 849 25.07 15.8 60.5 54 6.7 44
17:00 1020 30.12 850 25.1 16.2 61.1 49 5.5 42
17:05 1020 30.12 850 25.1 16.8 62.2 48 5.8 42.4
17:10 1020 30.12 850 25.1 16.7 62.1 48 5.6 42.1
17:15 1020 30.12 849 25.07 15.8 60.5 52 6.1 43
17:20 1020 30.12 850 25.1 15.4 59.7 52 5.7 42.2
17:25 1020 30.12 850 25.1 15.6 60.1 53 6.2 43.2
17:30 1020 30.12 850 25.1 15.3 59.6 53 6 42.8
17:35 1020 30.12 850 25.1 15.7 60.3 51 5.7 42.2
17:40 1020 30.12 850 25.1 16.5 61.6 48 5.6 42.2
17:45 1020 30.12 850 25.1 17 62.5 49 6.2 43.2
17:50 1020 30.12 850 25.1 16.6 61.9 49 5.9 42.6
17:55 1020 30.12 850 25.1 16.9 62.5 47 5.6 42
18:00 1020 30.12 850 25.1 17.2 63 47 6 42.8
18:05 1020 30.12 850 25.1 17.1 62.7 51 7 44.6
18:10 1020 30.12 850 25.1 16.5 61.7 52 6.6 43.9
18:15 1021 30.15 850 25.1 16.6 61.9 52 6.8 44.2
18:20 1021 30.15 850 25.1 16.6 61.8 53 7 44.6
18:25 1021 30.15 850 25.1 15.8 60.4 56 7.1 44.7
18:30 1021 30.15 850 25.1 15.9 60.6 54 6.8 44.2
18:35 1021 30.15 850 25.1 15.3 59.5 56 6.6 43.8
18:40 1021 30.15 850 25.1 15.6 60.1 55 6.7 44
18:45 1020 30.12 850 25.1 15.7 60.2 54 6.3 43.4
18:50 1020 30.12 850 25.1 16.6 61.8 53 7 44.6
18:55 1021 30.15 850 25.1 16.3 61.3 53 6.7 44
19:00 1021 30.15 850 25.1 16 60.8 52 6.3 43.3
19:05 1021 30.15 850 25.1 15.5 59.8 55 6.6 43.9
19:10 1021 30.15 850 25.1 15.3 59.5 55 6.3 43.4
19:15 1021 30.15 850 25.1 15.4 59.8 54 6.2 43.2
19:20 1021 30.15 850 25.1 15.4 59.7 54 6.3 43.3
19:25 1021 30.15 850 25.1 15.4 59.6 53 5.8 42.5
19:30 1021 30.15 850 25.1 15.3 59.5 53 5.8 42.5
19:35 1021 30.15 850 25.1 15.2 59.4 53 5.9 42.7
19:40 1021 30.15 850 25.1 15.2 59.3 54 5.9 42.6
19:45 1021 30.15 850 25.1 15.1 59.2 53 5.6 42.1
19:50 1021 30.15 850 25.1 15.1 59.2 52 5.3 41.6
19:55 1021 30.15 850 25.1 15.1 59.2 53 5.6 42.1
20:00 1021 30.15 850 25.1 15.1 59.1 54 5.8 42.5
20:05 1021 30.15 850 25.1 15 59 56 6.3 43.4
20:10 1021 30.15 850 25.1 14.7 58.4 59 6.8 44.2
20:15 1021 30.15 850 25.1 14.5 58 60 6.8 44.2
20:20 1021 30.15 850 25.1 14.3 57.8 60 6.6 43.9
20:25 1021 30.15 850 25.1 14.1 57.4 62 6.9 44.5
20:30 1021 30.15 850 25.1 14 57.3 64 7.5 45.5
20:35 1021 30.15 850 25.1 13.8 56.8 64 7.2 45
20:40 1021 30.15 850 25.1 13.6 56.6 65 7.2 45
20:45 1021 30.15 850 25.1 13.6 56.5 65 7.2 44.9
20:50 1021 30.15 850 25.1 13.5 56.2 65 7 44.7
20:55 1021 30.15 850 25.1 13.5 56.4 65 7 44.7
21:00 1021 30.15 851 25.13 13.4 56.2 65 7.1 44.8
21:05 1021 30.15 851 25.13 13.3 55.9 66 7.1 44.8
21:10 1022 30.18 851 25.13 13.1 55.7 66 7 44.5
21:15 1022 30.18 851 25.13 13.1 55.6 67 7.2 45
21:20 1022 30.18 851 25.13 12.5 54.5 75 8.1 46.7
21:25 1022 30.18 851 25.13 11.8 53.2 78 8 46.4
21:30 1022 30.18 851 25.13 11.4 52.5 78 7.8 46
21:35 1022 30.18 851 25.13 11.2 52.2 79 7.8 46
21:40 1022 30.18 851 25.13 11.2 52.1 77 7.4 45.3
21:45 1022 30.18 851 25.13 11.3 52.3 77 7.4 45.3
21:50 1022 30.18 851 25.13 11.2 52.1 78 7.5 45.4
21:55 1022 30.18 851 25.13 11 51.8 78 7.4 45.3
22:00 1022 30.18 851 25.13 10.9 51.6 79 7.3 45.2
22:05 1022 30.18 852 25.16 10.9 51.6 78 7.2 45
22:10 1022 30.18 852 25.16 10.8 51.4 78 7.2 44.9
22:15 1022 30.18 852 25.16 10.8 51.4 78 7.1 44.7
22:20 1022 30.18 852 25.16 10.9 51.7 76 6.9 44.5
22:25 1022 30.18 851 25.13 11.2 52.1 76 7 44.7
22:30 1022 30.18 851 25.13 11.3 52.3 74 6.8 44.2
22:35 1022 30.18 851 25.13 11.5 52.6 73 6.7 44.1
22:40 1022 30.18 852 25.16 11.5 52.8 72 6.8 44.2
22:45 1022 30.18 852 25.16 11.6 52.9 72 6.8 44.2
22:50 1022 30.18 851 25.13 11.7 53.1 71 6.7 44.1
22:55 1022 30.18 851 25.13 11.6 52.9 72 6.7 44.1
23:00 1022 30.18 851 25.13 11.4 52.5 73 6.8 44.3
23:05 1022 30.18 852 25.16 10.8 51.4 78 7.2 44.9
23:10 1022 30.18 852 25.16 10.2 50.3 82 7.2 44.9
23:15 1022 30.18 852 25.16 9.8 49.6 82 6.8 44.2
23:20 1022 30.18 852 25.16 9.9 49.8 80 6.6 43.9
23:25 1022 30.18 852 25.16 10.2 50.3 80 6.8 44.3
23:30 1022 30.18 852 25.16 10.2 50.4 79 6.7 44
23:35 1022 30.18 852 25.16 10.4 50.6 77 6.5 43.7
23:40 1023 30.21 852 25.16 10.6 51 76 6.4 43.6
23:45 1023 30.21 852 25.16 10.6 51.1 75 6.4 43.6
23:50 1023 30.21 852 25.16 10.6 51 75 6.4 43.5
23:55 1023 30.21 852 25.16 10.5 50.9 77 6.6 43.8
24:00 1023 30.21 852 25.16 10.3 50.5 77 6.4 43.6